Time;durP1;ratioP1;P1;durP2;ratioP2;P2;SDS_P1;SDS_P2;PMS_P1;PMS_P2;Temp;Humidity;BMP_temperature;BMP_pressure;BME280_temperature;BME280_humidity;BME280_pressure;Samples;Min_cycle;Max_cycle;Signal;HPM_P1;HPM_P2
2024/03/16 05:02:00;;;;;;;0.90;0.80;;;9.60;97.30;;;;;;5357377;23;20496;-87
2024/03/16 05:04:39;;;;;;;0.90;0.80;;;9.50;97.30;;;;;;4981178;28;20429;-87
2024/03/16 05:07:32;;;;;;;0.90;0.80;;;9.50;97.30;;;;;;4977572;28;20188;-87
2024/03/16 05:10:00;;;;;;;0.90;0.80;;;9.50;97.30;;;;;;4964644;28;20433;-88
2024/03/16 05:12:59;;;;;;;1.00;0.90;;;9.30;97.30;;;;;;4966319;28;20458;-87
2024/03/16 05:15:51;;;;;;;1.00;0.90;;;9.10;97.30;;;;;;4968086;28;20461;-88
2024/03/16 05:18:30;;;;;;;;;;;;;;;;;;;;;
2024/03/16 05:21:19;;;;;;;0.90;0.80;;;8.90;97.30;;;;;;4974425;28;20459;-88
2024/03/16 05:23:51;;;;;;;0.90;0.80;;;8.80;97.30;;;;;;4968885;28;20437;-88
2024/03/16 05:26:20;;;;;;;1.00;0.90;;;8.70;97.30;;;;;;4962227;28;20445;-88
2024/03/16 05:28:49;;;;;;;0.90;0.80;;;8.60;97.30;;;;;;4957175;28;20448;-87
2024/03/16 05:31:21;;;;;;;0.90;0.80;;;8.60;97.30;;;;;;4962858;28;20449;-88
2024/03/16 05:34:21;;;;;;;1.20;1.10;;;8.60;97.30;;;;;;4974266;28;20960;-88
2024/03/16 05:36:50;;;;;;;0.90;0.80;;;8.70;97.30;;;;;;4973066;28;20457;-87
2024/03/16 05:39:29;;;;;;;1.00;0.90;;;8.80;97.30;;;;;;4964843;28;20517;-87
2024/03/16 05:42:01;;;;;;;2.10;1.07;;;8.90;97.30;;;;;;4957160;28;20485;-88
2024/03/16 05:45:10;;;;;;;1.00;0.90;;;9.00;97.30;;;;;;4964329;28;20425;-88
2024/03/16 05:47:52;;;;;;;;;;;;;;;;;;;;;
2024/03/16 05:50:21;;;;;;;1.00;0.90;;;9.20;97.30;;;;;;4980596;28;20424;-88
2024/03/16 05:53:31;;;;;;;1.37;1.27;;;9.20;97.30;;;;;;4968987;28;20417;-88
2024/03/16 05:56:19;;;;;;;;;;;;;;;;;;;;;
2024/03/16 05:58:51;;;;;;;0.90;0.80;;;9.40;97.30;;;;;;4954488;28;20427;-87
2024/03/16 06:01:20;;;;;;;0.90;0.80;;;9.50;97.30;;;;;;4962530;28;20560;-88
2024/03/16 06:04:50;;;;;;;1.00;0.90;;;9.50;97.30;;;;;;4964767;28;20468;-86
2024/03/16 06:07:59;;;;;;;0.80;0.70;;;9.70;97.30;;;;;;4947745;28;20435;-87
2024/03/16 06:10:48;;;;;;;0.80;0.70;;;9.90;97.30;;;;;;4959543;28;20428;-87
2024/03/16 06:13:40;;;;;;;1.03;0.97;;;10.00;97.30;;;;;;4951075;28;20422;-86
2024/03/16 06:16:40;;;;;;;0.80;0.80;;;10.20;97.30;;;;;;4944436;28;20466;-87
2024/03/16 06:19:12;;;;;;;0.80;0.70;;;10.30;97.30;;;;;;4956732;28;20454;-88
2024/03/16 06:22:02;;;;;;;1.20;1.10;;;10.40;97.30;;;;;;4956250;28;20434;-86
2024/03/16 06:24:42;;;;;;;2.33;1.40;;;10.40;97.30;;;;;;4963098;28;20413;-88
2024/03/16 06:27:20;;;;;;;1.00;0.90;;;10.40;97.30;;;;;;4952935;28;20459;-88
2024/03/16 06:33:10;;;;;;;1.10;1.00;;;10.40;97.30;;;;;;4893008;29;20450;-86
2024/03/16 06:35:48;;;;;;;1.00;0.90;;;10.50;97.30;;;;;;4877508;29;20500;-88
2024/03/16 06:38:20;;;;;;;1.30;1.20;;;10.50;97.30;;;;;;4877699;29;20420;-86
2024/03/16 06:41:00;;;;;;;1.20;1.10;;;10.60;97.30;;;;;;4894310;29;20472;-88
2024/03/16 06:43:32;;;;;;;0.90;0.80;;;10.70;97.30;;;;;;4891915;29;20468;-87
2024/03/16 06:46:59;;;;;;;1.43;1.33;;;10.70;97.30;;;;;;4887721;29;20421;-88
2024/03/16 06:50:40;;;;;;;1.43;1.33;;;10.90;97.30;;;;;;4804933;29;20433;-85
2024/03/16 06:53:20;;;;;;;1.00;0.90;;;11.00;97.30;;;;;;4832458;29;20471;-87
2024/03/16 06:56:03;;;;;;;1.37;1.17;;;11.10;97.30;;;;;;4822932;29;20551;-88
2024/03/16 06:58:40;;;;;;;0.97;0.87;;;11.10;97.30;;;;;;4838745;29;20420;-88
2024/03/16 07:01:24;;;;;;;1.23;1.20;;;11.20;97.30;;;;;;4816225;29;20994;-86
2024/03/16 07:04:12;;;;;;;1.77;1.23;;;11.20;97.30;;;;;;4856671;29;20429;-88
2024/03/16 07:06:40;;;;;;;0.90;0.80;;;11.30;97.30;;;;;;4896009;28;20486;-87
2024/03/16 07:09:12;;;;;;;1.10;1.00;;;11.30;97.30;;;;;;4951326;28;20479;-87
2024/03/16 07:11:40;;;;;;;1.33;1.23;;;11.30;97.30;;;;;;4972441;28;20437;-87
2024/03/16 07:14:29;;;;;;;1.50;1.43;;;11.40;97.30;;;;;;4951910;28;20457;-87
2024/03/16 07:17:01;;;;;;;1.17;1.07;;;11.40;97.30;;;;;;4920983;28;20553;-88
2024/03/16 07:23:20;;;;;;;0.90;0.80;;;11.40;97.30;;;;;;4959034;28;20429;-87
2024/03/16 07:28:49;;;;;;;7.13;2.63;;;11.50;97.30;;;;;;4973030;28;20422;-88
2024/03/16 07:31:30;;;;;;;0.90;0.80;;;11.70;97.30;;;;;;4959275;28;20445;-87
2024/03/16 07:34:51;;;;;;;0.90;0.80;;;11.90;97.30;;;;;;4973158;28;20951;-87
2024/03/16 07:37:21;;;;;;;0.90;0.90;;;12.00;97.30;;;;;;4936382;28;20615;-87
2024/03/16 07:39:50;;;;;;;2.80;1.53;;;12.30;97.30;;;;;;4971084;28;20939;-87
2024/03/16 07:42:29;;;;;;;0.90;0.80;;;12.30;97.30;;;;;;4966010;28;20465;-86
2024/03/16 07:45:01;;;;;;;1.57;1.47;;;12.40;97.30;;;;;;4971992;28;20437;-86
2024/03/16 07:47:40;;;;;;;1.33;1.30;;;12.50;97.30;;;;;;4965730;28;20457;-87
2024/03/16 07:50:20;;;;;;;0.90;0.80;;;12.70;97.30;;;;;;4958477;28;20470;-87
2024/03/16 07:52:49;;;;;;;1.87;1.77;;;12.70;97.30;;;;;;4966007;28;20447;-86
2024/03/16 07:55:20;;;;;;;1.20;1.10;;;12.80;97.30;;;;;;4969350;28;20439;-87
2024/03/16 07:57:49;;;;;;;0.97;0.80;;;12.70;97.30;;;;;;4974668;28;20446;-86
2024/03/16 08:00:21;;;;;;;1.20;1.10;;;12.80;97.30;;;;;;4968953;28;20471;-86
2024/03/16 08:03:10;;;;;;;1.07;1.00;;;12.80;97.30;;;;;;4965305;28;20560;-86
2024/03/16 08:06:10;;;;;;;0.83;0.73;;;12.90;97.30;;;;;;4958937;28;20943;-85
2024/03/16 08:08:41;;;;;;;2.40;1.60;;;13.10;97.30;;;;;;4971818;28;20801;-84
2024/03/16 08:11:51;;;;;;;0.90;0.80;;;13.30;97.30;;;;;;4982595;28;20472;-87
2024/03/16 08:14:39;;;;;;;0.70;0.70;;;13.40;97.30;;;;;;4958390;28;20457;-86
2024/03/16 08:17:11;;;;;;;0.90;0.80;;;13.50;97.30;;;;;;4906060;28;20469;-85
2024/03/16 08:19:40;;;;;;;0.67;0.63;;;13.40;97.30;;;;;;4971983;28;20432;-87
2024/03/16 08:22:40;;;;;;;0.90;0.80;;;13.50;97.30;;;;;;4961296;28;20502;-87
2024/03/16 08:25:21;;;;;;;1.20;1.13;;;13.60;97.30;;;;;;4954082;28;20940;-86
2024/03/16 08:28:28;;;;;;;1.37;1.27;;;13.70;97.30;;;;;;4965121;28;20425;-85
2024/03/16 08:31:19;;;;;;;1.27;1.17;;;13.80;97.30;;;;;;4981701;28;20480;-85
2024/03/16 08:34:09;;;;;;;1.07;1.00;;;14.10;97.30;;;;;;4937736;28;20723;-87
2024/03/16 08:36:49;;;;;;;1.00;0.90;;;14.30;97.30;;;;;;4940832;28;20557;-86
2024/03/16 08:42:19;;;;;;;6.00;1.47;;;14.40;97.30;;;;;;4956590;28;20487;-87
2024/03/16 08:44:51;;;;;;;0.97;0.87;;;14.50;97.30;;;;;;4965133;28;20438;-85
2024/03/16 08:47:19;;;;;;;1.10;1.00;;;14.40;97.30;;;;;;4964315;28;20186;-86
2024/03/16 08:50:00;;;;;;;0.80;0.70;;;14.30;97.30;;;;;;4964911;28;20417;-86
2024/03/16 08:52:26;;;;;;;0.90;0.80;;;14.30;97.30;;;;;;4975601;23;20495;-73
2024/03/16 08:54:55;;;;;;;1.20;1.10;;;14.10;97.30;;;;;;4973212;28;20424;-67
2024/03/16 08:57:22;;;;;;;1.20;1.10;;;13.80;97.30;;;;;;4968922;28;21020;-66
2024/03/16 08:59:47;;;;;;;1.30;1.20;;;13.80;97.30;;;;;;4974078;28;20436;-67
2024/03/16 09:02:13;;;;;;;1.30;1.20;;;13.80;97.30;;;;;;4976127;28;20450;-64
2024/03/16 09:04:39;;;;;;;3.17;0.90;;;13.70;97.30;;;;;;4968762;28;20195;-66
2024/03/16 09:07:05;;;;;;;5.13;1.63;;;13.70;97.30;;;;;;4952737;28;20278;-66
2024/03/16 09:09:30;;;;;;;1.10;1.00;;;13.70;97.30;;;;;;4954454;28;20328;-67
2024/03/16 09:11:56;;;;;;;1.20;1.10;;;13.70;97.30;;;;;;4949851;28;20546;-66
2024/03/16 09:14:21;;;;;;;2.30;1.20;;;13.60;97.30;;;;;;4968928;28;20674;-67
2024/03/16 09:16:47;;;;;;;1.77;1.57;;;13.60;97.30;;;;;;4943492;28;20744;-65
2024/03/16 09:19:12;;;;;;;1.00;0.90;;;13.50;97.30;;;;;;4965597;28;20186;-65
2024/03/16 09:21:38;;;;;;;1.53;1.13;;;13.50;97.30;;;;;;4949681;28;20277;-65
2024/03/16 09:24:04;;;;;;;2.33;1.40;;;13.60;97.30;;;;;;4954358;28;20205;-66
2024/03/16 09:26:29;;;;;;;1.57;1.00;;;13.60;97.30;;;;;;4971727;28;20198;-67
2024/03/16 09:28:55;;;;;;;1.67;1.33;;;13.80;97.30;;;;;;4971911;28;20286;-67
2024/03/16 09:31:24;;;;;;;1.57;1.20;;;13.80;97.30;;;;;;4954526;28;20682;-68
2024/03/16 09:33:50;;;;;;;6.43;1.57;;;13.90;97.30;;;;;;4971662;28;20201;-66
2024/03/16 09:36:16;;;;;;;2.00;1.30;;;13.90;97.30;;;;;;4971959;28;20466;-68
2024/03/16 09:38:41;;;;;;;1.13;1.00;;;13.90;97.30;;;;;;4946792;28;20445;-66
2024/03/16 09:41:20;;;;;;;3.10;1.10;;;13.90;97.30;;;;;;4971574;28;20202;-66
2024/03/16 09:43:47;;;;;;;1.10;1.10;;;13.80;97.30;;;;;;4971582;28;20190;-66
2024/03/16 09:46:13;;;;;;;2.87;1.83;;;13.80;97.30;;;;;;4971954;28;20426;-66
2024/03/16 09:48:39;;;;;;;4.77;2.23;;;13.70;97.30;;;;;;4971421;28;20433;-66
2024/03/16 09:51:05;;;;;;;4.20;1.80;;;13.80;97.30;;;;;;4950603;28;20478;-65
2024/03/16 09:53:32;;;;;;;1.00;0.90;;;13.70;97.30;;;;;;4951434;28;20435;-66
2024/03/16 09:56:10;;;;;;;1.00;0.90;;;13.70;97.30;;;;;;4952243;28;20207;-65
2024/03/16 09:58:36;;;;;;;1.43;1.30;;;13.70;97.30;;;;;;4950866;28;20477;-65
2024/03/16 10:01:03;;;;;;;1.53;1.43;;;13.80;97.30;;;;;;4952088;28;20517;-66
2024/03/16 10:03:33;;;;;;;2.27;1.80;;;13.80;97.30;;;;;;4951665;28;20487;-65
2024/03/16 10:06:04;;;;;;;1.20;1.10;;;13.80;97.30;;;;;;4950605;28;20427;-66
2024/03/16 10:08:30;;;;;;;4.43;1.53;;;13.90;97.30;;;;;;4951946;28;20937;-65
2024/03/16 10:11:15;;;;;;;1.43;1.33;;;13.90;97.30;;;;;;4959794;28;20476;-64
2024/03/16 10:13:58;;;;;;;1.60;1.53;;;14.00;97.30;;;;;;4951589;28;20427;-65
2024/03/16 10:16:25;;;;;;;5.80;1.67;;;14.00;97.30;;;;;;4950451;28;20505;-65
2024/03/16 10:18:53;;;;;;;1.00;1.00;;;14.00;97.30;;;;;;4951655;28;20425;-65
2024/03/16 10:21:18;;;;;;;2.63;1.93;;;14.00;97.30;;;;;;4943883;28;20814;-66
2024/03/16 10:23:47;;;;;;;2.90;2.70;;;14.00;97.30;;;;;;4951574;28;20628;-65
2024/03/16 10:26:13;;;;;;;2.50;1.57;;;14.00;97.30;;;;;;4964814;28;20199;-66
2024/03/16 10:28:42;;;;;;;3.23;1.60;;;13.90;97.30;;;;;;4946567;28;20415;-66
2024/03/16 10:31:09;;;;;;;1.20;1.10;;;13.90;97.30;;;;;;4957925;28;20997;-65
2024/03/16 10:33:39;;;;;;;1.40;1.33;;;13.80;97.30;;;;;;4944104;28;20780;-67
2024/03/16 10:36:06;;;;;;;6.40;1.77;;;13.80;97.30;;;;;;4957607;28;21007;-64
2024/03/16 10:38:33;;;;;;;1.80;1.70;;;13.80;97.30;;;;;;4949770;28;20434;-69
2024/03/16 10:41:04;;;;;;;1.10;1.00;;;13.80;97.30;;;;;;4943393;28;20446;-66
2024/03/16 10:43:31;;;;;;;1.40;1.30;;;13.90;97.30;;;;;;4958056;28;20422;-66
2024/03/16 10:45:58;;;;;;;8.17;1.27;;;13.90;97.30;;;;;;4959457;28;20886;-67
2024/03/16 10:48:24;;;;;;;1.37;1.00;;;14.00;97.30;;;;;;4951660;28;20419;-66
2024/03/16 10:50:51;;;;;;;2.13;1.10;;;14.00;97.30;;;;;;4949667;28;21326;-65
2024/03/16 10:53:17;;;;;;;2.13;1.73;;;14.00;97.30;;;;;;4943312;28;20397;-70
2024/03/16 10:55:46;;;;;;;1.30;1.20;;;14.00;97.30;;;;;;4951725;28;20502;-65
2024/03/16 10:58:23;;;;;;;1.00;0.90;;;14.00;97.30;;;;;;4959109;28;20510;-64
2024/03/16 11:00:49;;;;;;;1.83;1.73;;;14.00;97.30;;;;;;4951020;28;20438;-65
2024/03/16 11:03:28;;;;;;;1.00;0.90;;;14.00;97.30;;;;;;4941928;28;20466;-64
2024/03/16 11:06:21;;;;;;;1.33;1.23;;;14.00;97.30;;;;;;4959358;28;20551;-65
2024/03/16 11:08:48;;;;;;;1.27;1.17;;;14.00;97.30;;;;;;4945899;28;20431;-67
2024/03/16 11:11:21;;;;;;;1.23;1.13;;;14.10;97.30;;;;;;4951371;28;20447;-65
2024/03/16 11:13:56;;;;;;;0.80;0.70;;;14.20;97.30;;;;;;4951030;28;20450;-64
2024/03/16 11:16:30;;;;;;;2.77;2.60;;;14.50;97.30;;;;;;4946887;28;20484;-66
2024/03/16 11:18:59;;;;;;;1.50;1.10;;;14.70;97.10;;;;;;4961921;28;20528;-65
2024/03/16 11:21:37;;;;;;;2.40;1.47;;;14.90;96.70;;;;;;4938476;28;20455;-66
2024/03/16 11:24:04;;;;;;;0.90;0.80;;;15.00;96.20;;;;;;4948261;28;20426;-66
2024/03/16 11:26:34;;;;;;;0.90;0.80;;;15.30;96.00;;;;;;4958859;28;20423;-65
2024/03/16 11:29:15;;;;;;;0.80;0.80;;;15.50;95.00;;;;;;4950880;28;20847;-68
2024/03/16 11:31:44;;;;;;;0.90;0.90;;;15.80;94.20;;;;;;4949799;28;20452;-65
2024/03/16 11:34:13;;;;;;;2.60;2.17;;;15.90;93.80;;;;;;4952131;28;20897;-65
2024/03/16 11:36:48;;;;;;;1.17;1.10;;;16.10;93.70;;;;;;4950731;28;20458;-71
2024/03/16 11:39:16;;;;;;;1.33;1.23;;;16.50;92.90;;;;;;4949886;28;20426;-65
2024/03/16 11:41:46;;;;;;;1.27;1.27;;;16.10;92.70;;;;;;4950873;28;20506;-66
2024/03/16 11:44:12;;;;;;;1.53;1.30;;;15.70;93.00;;;;;;4950334;28;20418;-66
2024/03/16 11:46:42;;;;;;;1.00;0.97;;;15.50;93.30;;;;;;4955833;28;20819;-71
2024/03/16 11:49:14;;;;;;;2.40;1.20;;;15.50;93.90;;;;;;4951145;28;20431;-66
2024/03/16 11:51:41;;;;;;;0.90;0.80;;;15.50;94.10;;;;;;4944030;28;21019;-72
2024/03/16 11:54:07;;;;;;;1.53;1.43;;;15.30;94.00;;;;;;4946420;28;20943;-66
2024/03/16 11:56:34;;;;;;;0.87;0.80;;;15.10;94.80;;;;;;4950012;28;20473;-65
2024/03/16 11:59:06;;;;;;;1.30;1.20;;;15.10;95.20;;;;;;4948924;28;20242;-67
2024/03/16 12:01:33;;;;;;;0.97;0.90;;;15.00;96.80;;;;;;4950239;28;20443;-69
2024/03/16 12:03:59;;;;;;;1.00;0.90;;;14.90;97.20;;;;;;4950815;28;20426;-64
2024/03/16 12:06:26;;;;;;;0.80;0.70;;;14.30;97.30;;;;;;4942610;28;20486;-66
2024/03/16 12:08:52;;;;;;;1.27;1.00;;;13.40;97.30;;;;;;4956962;28;20442;-66
2024/03/16 12:11:18;;;;;;;1.13;1.10;;;12.30;97.30;;;;;;4950205;28;20456;-66
2024/03/16 12:13:45;;;;;;;1.10;1.00;;;11.60;97.30;;;;;;4958519;28;20187;-62
2024/03/16 12:16:10;;;;;;;1.77;1.63;;;11.20;97.30;;;;;;4950599;28;20561;-67
2024/03/16 12:18:36;;;;;;;3.67;1.63;;;10.70;97.30;;;;;;4953867;28;20478;-66
2024/03/16 12:21:04;;;;;;;1.17;1.07;;;10.50;97.30;;;;;;4953296;28;20265;-67
2024/03/16 12:23:30;;;;;;;1.37;1.27;;;10.30;97.30;;;;;;4952505;28;20222;-68
2024/03/16 12:25:59;;;;;;;1.07;0.97;;;10.20;97.30;;;;;;4949639;28;20898;-67
2024/03/16 12:28:25;;;;;;;1.00;0.90;;;10.10;97.30;;;;;;4954381;28;20193;-69
2024/03/16 12:30:51;;;;;;;0.90;0.80;;;10.00;97.30;;;;;;4948405;28;20446;-68
2024/03/16 12:33:17;;;;;;;1.30;1.20;;;10.00;97.30;;;;;;4953392;28;20206;-67
2024/03/16 12:35:43;;;;;;;1.67;1.57;;;9.90;97.30;;;;;;4948496;28;20466;-67
2024/03/16 12:38:10;;;;;;;1.30;1.20;;;9.80;97.30;;;;;;4947285;28;20306;-65
2024/03/16 12:40:39;;;;;;;1.20;1.10;;;9.80;97.30;;;;;;4944592;28;20467;-66
2024/03/16 12:43:05;;;;;;;1.57;1.47;;;9.70;97.30;;;;;;4945929;28;20567;-66
2024/03/16 12:45:31;;;;;;;0.90;0.80;;;9.70;97.30;;;;;;4944698;28;20514;-65
2024/03/16 12:47:56;;;;;;;2.40;1.37;;;9.70;97.30;;;;;;4957103;28;20981;-65
2024/03/16 12:50:22;;;;;;;3.40;3.20;;;9.70;97.30;;;;;;4949499;28;20513;-66
2024/03/16 12:52:49;;;;;;;1.60;1.50;;;9.70;97.30;;;;;;4965253;28;20214;-64
2024/03/16 12:55:16;;;;;;;1.57;1.47;;;9.70;97.30;;;;;;4971038;28;20382;-65
2024/03/16 12:57:42;;;;;;;1.30;1.20;;;9.80;97.30;;;;;;4964758;28;20478;-65
2024/03/16 13:00:11;;;;;;;4.07;2.33;;;9.90;97.30;;;;;;4964414;28;20418;-64
2024/03/16 13:02:37;;;;;;;1.63;1.20;;;10.00;97.30;;;;;;4968437;28;21004;-63
2024/03/16 13:05:10;;;;;;;1.77;1.67;;;10.20;97.30;;;;;;4972280;28;20426;-67
2024/03/16 13:07:36;;;;;;;2.00;1.67;;;10.30;97.30;;;;;;4967672;28;20995;-64
2024/03/16 13:10:02;;;;;;;1.00;0.90;;;10.40;97.30;;;;;;4949357;28;20434;-64
2024/03/16 13:12:27;;;;;;;1.10;1.03;;;10.50;97.30;;;;;;4967929;28;20438;-65
2024/03/16 13:14:53;;;;;;;0.93;0.83;;;10.50;97.30;;;;;;4961902;28;20273;-67
2024/03/16 13:17:18;;;;;;;1.20;1.10;;;10.40;97.30;;;;;;4969525;28;20218;-65
2024/03/16 13:19:44;;;;;;;1.80;1.70;;;10.30;97.30;;;;;;4972247;28;20273;-64
2024/03/16 13:22:11;;;;;;;1.10;1.00;;;10.30;97.30;;;;;;4965119;28;20203;-65
2024/03/16 13:24:38;;;;;;;0.87;0.77;;;10.30;97.30;;;;;;4967679;28;20194;-66
2024/03/16 13:27:07;;;;;;;3.73;1.97;;;10.30;97.30;;;;;;4972457;28;20454;-67
2024/03/16 13:29:33;;;;;;;1.43;1.33;;;10.20;97.30;;;;;;4972072;28;20515;-67
2024/03/16 13:31:58;;;;;;;3.67;1.67;;;10.10;97.30;;;;;;4963751;28;20480;-67
2024/03/16 13:34:24;;;;;;;1.23;1.13;;;10.10;97.30;;;;;;4967238;28;20686;-67
2024/03/16 13:36:49;;;;;;;1.10;1.00;;;10.00;97.30;;;;;;4965356;28;20383;-66
2024/03/16 13:39:16;;;;;;;2.60;2.40;;;10.00;97.30;;;;;;4966269;28;20575;-65
2024/03/16 13:41:43;;;;;;;0.90;0.80;;;10.00;97.30;;;;;;4952321;28;20195;-64
2024/03/16 13:44:09;;;;;;;1.07;0.97;;;10.00;97.30;;;;;;4953932;28;20530;-67
2024/03/16 13:46:35;;;;;;;1.10;1.00;;;10.00;97.30;;;;;;4967284;28;20432;-69
2024/03/16 13:49:03;;;;;;;1.40;1.30;;;10.00;97.30;;;;;;4963306;28;20423;-70
2024/03/16 13:51:29;;;;;;;3.33;1.40;;;10.00;97.30;;;;;;4966833;28;20757;-67
2024/03/16 13:53:55;;;;;;;0.90;0.80;;;10.00;97.30;;;;;;4966863;28;20581;-67
2024/03/16 13:56:21;;;;;;;1.63;1.53;;;10.00;97.30;;;;;;4971245;28;20221;-68
2024/03/16 13:58:47;;;;;;;1.03;0.93;;;10.00;97.30;;;;;;4955852;28;20536;-67
2024/03/16 14:01:12;;;;;;;2.97;1.10;;;9.90;97.30;;;;;;4938758;28;20196;-67
2024/03/16 14:03:38;;;;;;;0.90;0.80;;;9.90;97.30;;;;;;4977917;28;20174;-68
2024/03/16 14:06:06;;;;;;;3.90;1.70;;;9.90;97.30;;;;;;4963636;28;20194;-66
2024/03/16 14:08:33;;;;;;;5.33;1.23;;;10.00;97.30;;;;;;4944725;28;20178;-66
2024/03/16 14:10:58;;;;;;;1.23;1.13;;;10.10;97.30;;;;;;4958998;28;20446;-66
2024/03/16 14:13:24;;;;;;;1.30;1.20;;;10.00;97.30;;;;;;4947564;28;20434;-68
2024/03/16 14:15:50;;;;;;;2.40;1.93;;;10.00;97.30;;;;;;4960054;28;20257;-65
2024/03/16 14:18:16;;;;;;;1.30;1.27;;;10.00;97.30;;;;;;4964277;28;20210;-67
2024/03/16 14:20:41;;;;;;;4.23;1.20;;;10.00;97.30;;;;;;4961502;28;20905;-63
2024/03/16 14:23:06;;;;;;;1.37;1.27;;;10.10;97.30;;;;;;4961701;28;20521;-70
2024/03/16 14:25:32;;;;;;;2.97;1.20;;;10.10;97.30;;;;;;4960201;28;20198;-64
2024/03/16 14:27:58;;;;;;;1.97;1.87;;;10.30;97.30;;;;;;4968914;28;20257;-70
2024/03/16 14:30:23;;;;;;;0.90;0.80;;;10.40;97.30;;;;;;4976906;28;20202;-67
2024/03/16 14:32:49;;;;;;;1.00;0.90;;;10.70;97.30;;;;;;4957592;28;20174;-67
2024/03/16 14:35:15;;;;;;;1.47;1.37;;;11.20;97.30;;;;;;4950188;28;20662;-68
2024/03/16 14:37:41;;;;;;;2.57;2.37;;;11.60;97.30;;;;;;4945985;28;20206;-67
2024/03/16 14:40:10;;;;;;;1.07;0.97;;;11.80;97.30;;;;;;4970453;28;20918;-66
2024/03/16 14:42:40;;;;;;;1.20;1.07;;;11.60;97.30;;;;;;4945246;28;20206;-66
2024/03/16 14:45:08;;;;;;;1.30;1.20;;;11.60;97.30;;;;;;4966504;28;20414;-67
2024/03/16 14:47:35;;;;;;;1.10;1.00;;;12.00;97.30;;;;;;4960797;28;20930;-65
2024/03/16 14:50:01;;;;;;;1.20;1.13;;;12.30;97.30;;;;;;4960908;28;20775;-67
2024/03/16 14:52:27;;;;;;;1.67;1.57;;;12.40;96.40;;;;;;4964670;28;20470;-68
2024/03/16 14:54:53;;;;;;;1.40;1.30;;;12.20;96.40;;;;;;4964637;28;20801;-66
2024/03/16 14:57:22;;;;;;;1.80;1.70;;;12.30;96.10;;;;;;4956874;28;20199;-69
2024/03/16 14:59:49;;;;;;;1.43;1.33;;;12.40;95.70;;;;;;4941282;28;20991;-68
2024/03/16 15:02:14;;;;;;;1.17;1.07;;;12.60;95.90;;;;;;4968381;28;20467;-67
2024/03/16 15:04:41;;;;;;;1.20;1.10;;;12.60;95.30;;;;;;4959680;28;20456;-68
2024/03/16 15:07:06;;;;;;;1.10;1.00;;;12.60;95.00;;;;;;4969090;28;20674;-70
2024/03/16 15:09:32;;;;;;;1.43;1.33;;;12.50;94.90;;;;;;4950358;28;20521;-67
2024/03/16 15:11:57;;;;;;;1.37;1.27;;;12.40;94.40;;;;;;4970156;28;20229;-65
2024/03/16 15:14:23;;;;;;;1.47;1.20;;;11.80;95.60;;;;;;4970778;28;20229;-66
2024/03/16 15:16:48;;;;;;;1.23;1.20;;;11.40;97.10;;;;;;4944095;28;20701;-66
2024/03/16 15:19:14;;;;;;;1.70;1.60;;;11.20;97.30;;;;;;4961749;28;20194;-75
2024/03/16 15:21:40;;;;;;;4.50;2.73;;;11.30;96.90;;;;;;4952232;28;20202;-66
2024/03/16 15:24:06;;;;;;;2.00;1.33;;;11.60;96.10;;;;;;4959876;28;20178;-70
2024/03/16 15:26:34;;;;;;;19.33;2.20;;;11.90;95.50;;;;;;4958365;28;20427;-67
2024/03/16 15:29:00;;;;;;;1.00;0.90;;;11.80;95.30;;;;;;4939270;28;20505;-67
2024/03/16 15:31:29;;;;;;;1.20;1.10;;;11.20;95.50;;;;;;4940425;28;20459;-67
2024/03/16 15:33:55;;;;;;;1.97;1.57;;;10.80;96.40;;;;;;4965458;28;20182;-68
2024/03/16 15:36:21;;;;;;;1.40;1.30;;;10.60;96.90;;;;;;4956813;28;20541;-70
2024/03/16 15:38:46;;;;;;;1.20;1.10;;;10.70;97.30;;;;;;4963197;28;20454;-65
2024/03/16 15:41:14;;;;;;;1.10;1.10;;;10.70;96.20;;;;;;4946208;28;20281;-68
2024/03/16 15:43:40;;;;;;;6.63;1.70;;;10.80;96.40;;;;;;4941404;28;20214;-70
2024/03/16 15:46:05;;;;;;;1.57;1.47;;;10.70;96.20;;;;;;4942389;28;20469;-68
2024/03/16 15:48:31;;;;;;;1.87;1.80;;;10.40;96.60;;;;;;4941309;28;20280;-69
2024/03/16 15:50:56;;;;;;;2.10;0.97;;;10.70;97.30;;;;;;4962181;28;20597;-71
2024/03/16 15:53:23;;;;;;;5.20;2.00;;;11.50;96.00;;;;;;4941083;28;20203;-69
2024/03/16 15:55:50;;;;;;;1.00;0.90;;;11.80;94.00;;;;;;4959749;28;20260;-70
2024/03/16 15:58:18;;;;;;;1.33;1.23;;;11.50;93.90;;;;;;4958397;28;20907;-71
2024/03/16 16:00:43;;;;;;;7.83;1.07;;;11.00;93.40;;;;;;4967265;28;20437;-69
2024/03/16 16:03:10;;;;;;;1.67;1.07;;;11.30;93.90;;;;;;4962394;28;20494;-71
2024/03/16 16:05:35;;;;;;;0.90;0.80;;;11.90;91.60;;;;;;4974166;28;20262;-67
2024/03/16 16:08:01;;;;;;;0.83;0.77;;;12.20;90.50;;;;;;4949744;28;20424;-70
2024/03/16 16:10:26;;;;;;;1.10;1.00;;;11.60;90.90;;;;;;4962879;28;20260;-69
2024/03/16 16:12:52;;;;;;;1.53;1.43;;;10.90;92.50;;;;;;4968300;28;20198;-70
2024/03/16 16:15:19;;;;;;;1.43;1.00;;;10.40;94.30;;;;;;4969598;28;20240;-69
2024/03/16 16:17:48;;;;;;;1.53;1.43;;;10.00;95.30;;;;;;4968469;28;20206;-69
2024/03/16 16:20:14;;;;;;;0.80;0.70;;;9.80;96.20;;;;;;4963407;28;21028;-67
2024/03/16 16:22:40;;;;;;;1.70;1.60;;;9.60;96.40;;;;;;4944064;28;20526;-67
2024/03/16 16:25:06;;;;;;;0.90;0.80;;;9.50;96.20;;;;;;4964067;28;20187;-71
2024/03/16 16:27:32;;;;;;;1.00;0.90;;;9.40;96.30;;;;;;4959780;28;20795;-68
2024/03/16 16:29:58;;;;;;;3.43;1.57;;;9.40;95.90;;;;;;4960792;28;20990;-70
2024/03/16 16:32:23;;;;;;;1.83;1.03;;;9.30;96.10;;;;;;4967476;28;20548;-69
2024/03/16 16:34:49;;;;;;;1.37;1.13;;;9.20;96.50;;;;;;4941964;28;20191;-69
2024/03/16 16:37:14;;;;;;;1.00;0.90;;;9.20;96.20;;;;;;4957751;28;20587;-69
2024/03/16 16:39:40;;;;;;;1.10;1.07;;;9.20;96.00;;;;;;4942521;28;20266;-70
2024/03/16 16:42:05;;;;;;;0.97;0.87;;;9.10;95.70;;;;;;4963094;28;20206;-70
2024/03/16 16:44:31;;;;;;;1.07;0.97;;;9.10;95.80;;;;;;4960633;28;20187;-67
2024/03/16 16:46:57;;;;;;;1.30;1.27;;;9.10;96.00;;;;;;4941299;28;20188;-68
2024/03/16 16:49:25;;;;;;;1.57;1.50;;;9.10;96.20;;;;;;4951868;28;20437;-68
2024/03/16 16:51:51;;;;;;;1.37;1.27;;;9.00;96.10;;;;;;4966649;28;20280;-69
2024/03/16 16:54:16;;;;;;;1.00;0.90;;;9.00;96.60;;;;;;4963611;28;20434;-68
2024/03/16 16:56:42;;;;;;;0.90;0.80;;;9.00;96.50;;;;;;4959736;28;20822;-71
2024/03/16 16:59:07;;;;;;;1.67;1.57;;;8.90;95.90;;;;;;4964246;28;20179;-69
2024/03/16 17:01:33;;;;;;;1.10;1.00;;;8.90;96.30;;;;;;4966828;28;20242;-68
2024/03/16 17:03:59;;;;;;;1.00;0.90;;;8.90;96.40;;;;;;4938143;28;20179;-69
2024/03/16 17:06:24;;;;;;;2.07;1.93;;;8.80;96.70;;;;;;4962021;28;20670;-70
2024/03/16 17:08:49;;;;;;;1.00;0.90;;;8.80;97.00;;;;;;4939720;28;20198;-69
2024/03/16 17:11:23;;;;;;;1.20;1.10;;;8.80;96.70;;;;;;4955152;28;20685;-70
2024/03/16 17:13:49;;;;;;;1.10;1.00;;;8.80;95.60;;;;;;4962594;28;20785;-68
2024/03/16 17:16:15;;;;;;;1.53;1.07;;;8.80;95.00;;;;;;4967605;28;20561;-69
2024/03/16 17:18:41;;;;;;;1.30;1.20;;;8.80;94.80;;;;;;4964861;28;20174;-70
2024/03/16 17:21:07;;;;;;;1.13;1.03;;;8.80;95.00;;;;;;4962384;28;20941;-71
2024/03/16 17:23:33;;;;;;;1.10;1.00;;;8.80;95.20;;;;;;4957464;28;20603;-71
2024/03/16 17:25:58;;;;;;;1.67;1.20;;;8.70;95.50;;;;;;4962682;28;20182;-70
2024/03/16 17:28:24;;;;;;;0.90;0.80;;;8.70;95.70;;;;;;4968603;28;20182;-70
2024/03/16 17:30:50;;;;;;;2.60;2.40;;;8.70;96.20;;;;;;4968880;28;20226;-70
2024/03/16 17:33:15;;;;;;;20.63;2.03;;;8.70;96.50;;;;;;4960223;28;20218;-71
2024/03/16 17:35:41;;;;;;;0.90;0.80;;;8.60;96.50;;;;;;4942760;28;20465;-70
2024/03/16 17:38:10;;;;;;;1.13;1.03;;;8.60;96.70;;;;;;4942388;28;20185;-70
2024/03/16 17:40:36;;;;;;;1.57;1.10;;;8.50;97.10;;;;;;4958926;28;20242;-71
2024/03/16 17:43:02;;;;;;;0.80;0.80;;;8.40;97.20;;;;;;4965216;28;20477;-71
2024/03/16 17:45:27;;;;;;;1.00;0.90;;;8.40;97.30;;;;;;4964931;28;20931;-71
2024/03/16 17:47:53;;;;;;;1.00;0.90;;;8.30;97.30;;;;;;4958706;28;20197;-71
2024/03/16 17:50:20;;;;;;;1.33;1.33;;;8.20;97.30;;;;;;4960933;28;20278;-70
2024/03/16 17:52:49;;;;;;;1.30;1.20;;;8.10;97.10;;;;;;4954934;28;20491;-72
2024/03/16 17:55:18;;;;;;;1.20;1.10;;;8.10;97.20;;;;;;4955312;28;20431;-72
2024/03/16 17:57:44;;;;;;;1.40;1.37;;;8.10;97.20;;;;;;4956352;28;20533;-72
2024/03/16 18:00:13;;;;;;;1.07;0.97;;;8.00;97.30;;;;;;4956814;28;20931;-70
2024/03/16 18:02:42;;;;;;;0.90;0.80;;;8.00;97.00;;;;;;4964526;28;20175;-70
2024/03/16 18:05:08;;;;;;;2.60;1.40;;;8.00;97.10;;;;;;4962210;28;20473;-71
2024/03/16 18:07:33;;;;;;;1.00;0.90;;;7.90;97.10;;;;;;4938355;28;20454;-72
2024/03/16 18:09:59;;;;;;;0.93;0.83;;;7.90;96.90;;;;;;4964812;28;20834;-71
2024/03/16 18:12:25;;;;;;;1.40;1.30;;;7.90;96.80;;;;;;4964296;28;20210;-71
2024/03/16 18:14:52;;;;;;;1.57;1.10;;;7.80;96.80;;;;;;4955325;28;20567;-72
2024/03/16 18:17:18;;;;;;;0.90;0.80;;;7.80;96.70;;;;;;4953089;28;20466;-71
2024/03/16 18:19:44;;;;;;;1.00;0.90;;;7.70;96.80;;;;;;4955787;28;20952;-71
2024/03/16 18:22:13;;;;;;;1.13;1.03;;;7.70;97.00;;;;;;4962574;28;20206;-72
2024/03/16 18:24:41;;;;;;;1.00;0.90;;;7.70;96.90;;;;;;4938880;28;20274;-71
2024/03/16 18:27:09;;;;;;;1.40;1.30;;;7.70;96.90;;;;;;4939516;28;20430;-71